Time;durP1;ratioP1;P1;durP2;ratioP2;P2;SDS_P1;SDS_P2;PMS_P1;PMS_P2;Temp;Humidity;BMP_temperature;BMP_pressure;BME280_temperature;BME280_humidity;BME280_pressure;Samples;Min_cycle;Max_cycle;Signal;HPM_P1;HPM_P2
2022/11/09 00:01:51;;;;;;;3.70;1.25;;;;;;;13.08;99.12;100398.88;6172479;28;20101;-73
2022/11/09 00:04:52;;;;;;;1.42;0.93;;;;;;;13.05;99.62;100402.59;6172798;28;20050;-72
2022/11/09 00:07:53;;;;;;;1.48;0.88;;;;;;;13.10;99.14;100387.28;6173131;28;20055;-72
2022/11/09 00:11:02;;;;;;;0.93;0.68;;;;;;;13.11;99.17;100383.69;6172414;28;20054;-72
2022/11/09 00:14:04;;;;;;;2.22;1.00;;;;;;;13.15;99.12;100389.59;6172541;28;20057;-71
2022/11/09 00:17:05;;;;;;;1.33;1.10;;;;;;;13.15;98.73;100386.97;6172855;28;20050;-73
2022/11/09 00:20:07;;;;;;;2.65;1.23;;;;;;;13.12;99.01;100380.09;6172564;28;20156;-73
2022/11/09 00:23:09;;;;;;;2.40;1.02;;;;;;;13.12;99.08;100387.16;6172722;28;20062;-72
2022/11/09 00:26:14;;;;;;;2.80;1.10;;;;;;;13.07;99.67;100374.28;6172501;28;20066;-73
2022/11/09 00:29:15;;;;;;;1.65;0.93;;;;;;;13.09;99.87;100380.31;6172543;28;20054;-73
2022/11/09 00:32:17;;;;;;;4.53;1.08;;;;;;;13.07;100.00;100376.94;6172236;28;20047;-72
2022/11/09 00:35:18;;;;;;;6.15;1.20;;;;;;;13.03;100.00;100370.19;6172224;28;20537;-72
2022/11/09 00:38:19;;;;;;;3.95;1.05;;;;;;;13.03;100.00;100362.25;6172474;28;20082;-73
2022/11/09 00:41:23;;;;;;;2.17;0.95;;;;;;;13.06;100.00;100358.59;6172144;28;20051;-73
2022/11/09 00:44:24;;;;;;;3.33;1.30;;;;;;;13.07;100.00;100358.47;6171933;28;20054;-72
2022/11/09 00:47:26;;;;;;;1.98;0.60;;;;;;;13.10;100.00;100349.50;6172609;28;20051;-73
2022/11/09 00:50:27;;;;;;;4.60;2.08;;;;;;;13.09;100.00;100351.31;6171867;28;20047;-73
2022/11/09 00:53:30;;;;;;;1.77;0.90;;;;;;;13.09;100.00;100353.94;6172257;28;20054;-72
2022/11/09 00:56:33;;;;;;;1.88;1.00;;;;;;;13.09;100.00;100346.03;6171987;28;20057;-73
2022/11/09 00:59:34;;;;;;;1.77;0.80;;;;;;;13.07;100.00;100347.91;6172584;28;20059;-72
2022/11/09 01:02:35;;;;;;;1.02;0.88;;;;;;;13.00;100.00;100361.66;6171745;28;20070;-72
2022/11/09 01:05:38;;;;;;;2.47;1.10;;;;;;;12.91;100.00;100363.97;6171944;28;20134;-72
2022/11/09 01:08:40;;;;;;;1.00;0.90;;;;;;;12.81;100.00;100357.66;6172294;28;20051;-73
2022/11/09 01:11:42;;;;;;;0.43;0.43;;;;;;;12.80;100.00;100365.66;6171877;28;20058;-73
2022/11/09 01:14:44;;;;;;;1.45;0.77;;;;;;;12.82;100.00;100361.97;6171908;28;20058;-73
2022/11/09 01:17:46;;;;;;;1.45;0.98;;;;;;;12.79;100.00;100372.72;6172101;28;20062;-71
2022/11/09 01:20:50;;;;;;;1.20;0.90;;;;;;;12.78;100.00;100378.13;6171824;28;20062;-71
2022/11/09 01:23:51;;;;;;;3.65;0.80;;;;;;;12.85;100.00;100387.28;6171839;28;20042;-72
2022/11/09 01:26:54;;;;;;;3.22;0.98;;;;;;;12.86;100.00;100371.38;6172179;28;20066;-71
2022/11/09 01:29:55;;;;;;;4.38;1.13;;;;;;;12.86;100.00;100375.81;6171401;28;20055;-71
2022/11/09 01:32:57;;;;;;;1.98;1.00;;;;;;;12.88;100.00;100374.72;6172057;28;20054;-72
2022/11/09 01:36:02;;;;;;;1.77;1.02;;;;;;;12.86;100.00;100368.72;6171450;28;20070;-73
2022/11/09 01:39:04;;;;;;;0.75;0.63;;;;;;;12.87;100.00;100373.06;6172070;28;20047;-72
2022/11/09 01:42:06;;;;;;;4.78;0.80;;;;;;;12.87;100.00;100365.13;6172822;28;20061;-72
2022/11/09 01:45:21;;;;;;;2.63;0.80;;;;;;;12.90;100.00;100362.31;6175833;28;20061;-71
2022/11/09 01:48:31;;;;;;;3.00;1.10;;;;;;;12.89;100.00;100362.38;6176098;28;20143;-72
2022/11/09 01:51:38;;;;;;;0.80;0.80;;;;;;;12.91;100.00;100361.34;6175630;28;20061;-72
2022/11/09 01:54:42;;;;;;;1.33;0.85;;;;;;;12.90;100.00;100361.47;6175565;28;20427;-72
2022/11/09 01:57:49;;;;;;;1.77;0.90;;;;;;;12.88;100.00;100365.97;6175898;28;20051;-72
2022/11/09 02:00:51;;;;;;;1.75;1.10;;;;;;;12.92;100.00;100368.31;6175329;28;20053;-72
2022/11/09 02:03:56;;;;;;;1.48;0.90;;;;;;;12.93;100.00;100366.50;6175551;28;20054;-71
2022/11/09 02:06:58;;;;;;;1.17;0.80;;;;;;;12.95;100.00;100357.53;6175592;28;20054;-71
2022/11/09 02:10:03;;;;;;;1.75;0.80;;;;;;;12.98;100.00;100356.47;6194298;28;20490;-72
2022/11/09 02:13:08;;;;;;;3.83;0.90;;;;;;;13.00;100.00;100354.59;6199653;28;20046;-71
2022/11/09 02:16:12;;;;;;;4.53;1.40;;;;;;;13.02;100.00;100349.19;6199310;28;20054;-72
2022/11/09 02:19:13;;;;;;;4.07;1.13;;;;;;;13.01;100.00;100351.00;6199577;28;20053;-72
2022/11/09 02:22:16;;;;;;;2.03;1.00;;;;;;;13.02;100.00;100354.47;6199035;28;20050;-72
2022/11/09 02:25:17;;;;;;;1.48;0.77;;;;;;;13.03;100.00;100349.06;6199047;28;20058;-71
2022/11/09 02:28:19;;;;;;;0.85;0.70;;;;;;;13.05;100.00;100343.72;6199338;28;20104;-72
2022/11/09 02:31:25;;;;;;;3.50;0.70;;;;;;;13.04;100.00;100342.03;6198791;28;20532;-72
2022/11/09 02:34:26;;;;;;;2.45;1.02;;;;;;;13.03;100.00;100338.53;6198907;28;20057;-73
2022/11/09 02:37:34;;;;;;;1.75;0.93;;;;;;;13.05;100.00;100338.44;6199179;28;20046;-71
2022/11/09 02:40:37;;;;;;;1.67;0.68;;;;;;;13.04;100.00;100331.47;6198555;28;20502;-72
2022/11/09 02:43:40;;;;;;;5.95;0.82;;;;;;;13.05;100.00;100333.16;6199114;28;20050;-72
2022/11/09 02:46:42;;;;;;;1.20;0.82;;;;;;;13.09;100.00;100330.19;6199306;28;20050;-72
2022/11/09 02:49:43;;;;;;;0.98;0.75;;;;;;;13.12;100.00;100334.41;6198738;28;20058;-72
2022/11/09 02:52:46;;;;;;;2.13;0.80;;;;;;;13.15;100.00;100321.84;6197792;28;20431;-72
2022/11/09 02:55:47;;;;;;;1.40;0.80;;;;;;;13.16;100.00;100323.53;6197868;28;20050;-71
2022/11/09 02:58:49;;;;;;;0.90;0.80;;;;;;;13.16;100.00;100326.16;6198637;28;20046;-72
2022/11/09 03:01:50;;;;;;;3.72;0.70;;;;;;;13.18;100.00;100334.00;6198023;28;20050;-71
2022/11/09 03:04:52;;;;;;;0.80;0.52;;;;;;;13.18;100.00;100320.78;6198157;28;20077;-72
2022/11/09 03:07:55;;;;;;;1.70;0.85;;;;;;;13.19;100.00;100331.22;6196858;28;20046;-71
2022/11/09 03:10:59;;;;;;;0.95;0.68;;;;;;;13.21;100.00;100331.09;6197647;28;20498;-71
2022/11/09 03:14:01;;;;;;;1.20;0.70;;;;;;;13.17;100.00;100322.59;6197957;28;20823;-72
2022/11/09 03:17:02;;;;;;;0.80;0.60;;;;;;;13.12;100.00;100324.69;6198264;28;20053;-71
2022/11/09 03:20:04;;;;;;;1.08;0.55;;;;;;;13.14;100.00;100336.00;6197730;28;20061;-72
2022/11/09 03:23:07;;;;;;;0.40;0.40;;;;;;;13.18;100.00;100342.75;6197877;28;20404;-72
2022/11/09 03:26:09;;;;;;;0.80;0.65;;;;;;;13.17;100.00;100333.16;6197451;28;20521;-72
2022/11/09 03:29:10;;;;;;;0.65;0.60;;;;;;;13.16;100.00;100335.88;6198200;28;20053;-73
2022/11/09 03:32:12;;;;;;;0.98;0.63;;;;;;;13.19;100.00;100339.16;6197580;28;20046;-72
2022/11/09 03:35:13;;;;;;;2.03;0.63;;;;;;;13.15;100.00;100336.84;6197415;28;20525;-72
2022/11/09 03:38:16;;;;;;;1.33;0.82;;;;;;;13.23;100.00;100354.81;6197561;28;20051;-72
2022/11/09 03:41:18;;;;;;;3.78;0.73;;;;;;;13.19;100.00;100354.13;6197432;28;20042;-72
2022/11/09 03:44:19;;;;;;;2.17;0.80;;;;;;;13.17;100.00;100354.25;6197193;28;20054;-71
2022/11/09 03:47:21;;;;;;;1.35;0.63;;;;;;;13.18;100.00;100355.09;6197802;28;20046;-72
2022/11/09 03:50:22;;;;;;;0.57;0.50;;;;;;;13.18;100.00;100340.09;6197133;28;20073;-72
2022/11/09 03:53:25;;;;;;;0.75;0.52;;;;;;;13.16;100.00;100346.44;6197090;28;20046;-72
2022/11/09 03:56:27;;;;;;;2.65;1.27;;;;;;;13.12;100.00;100337.88;6197095;28;20065;-72
2022/11/09 03:59:28;;;;;;;4.15;1.05;;;;;;;13.15;100.00;100340.31;6197096;28;20490;-72
2022/11/09 04:02:29;;;;;;;2.53;0.73;;;;;;;13.25;100.00;100329.13;6196767;28;20050;-72
2022/11/09 04:05:31;;;;;;;2.55;0.68;;;;;;;13.23;100.00;100334.53;6196356;28;20054;-71
2022/11/09 04:08:34;;;;;;;3.45;0.52;;;;;;;13.21;100.00;100329.31;6197182;28;20524;-71
2022/11/09 04:11:35;;;;;;;1.35;0.60;;;;;;;13.15;100.00;100340.31;6196520;28;20051;-72
2022/11/09 04:14:37;;;;;;;1.20;0.70;;;;;;;13.12;100.00;100339.69;6196855;28;20054;-71
2022/11/09 04:17:39;;;;;;;1.27;0.57;;;;;;;13.12;100.00;100340.50;6196830;28;20061;-72
2022/11/09 04:20:40;;;;;;;1.52;0.70;;;;;;;13.10;100.00;100339.78;6196916;28;20047;-72
2022/11/09 04:23:43;;;;;;;0.80;0.50;;;;;;;13.09;100.00;100332.00;6196393;28;20045;-72
2022/11/09 04:26:46;;;;;;;0.77;0.60;;;;;;;13.11;100.00;100336.19;6196960;28;20517;-72
2022/11/09 04:29:48;;;;;;;2.25;0.95;;;;;;;13.12;100.00;100342.31;6196833;28;20077;-71
2022/11/09 04:32:49;;;;;;;1.17;0.63;;;;;;;13.15;100.00;100348.22;6196445;28;20042;-72
2022/11/09 04:35:51;;;;;;;0.85;0.47;;;;;;;13.14;100.00;100348.34;6196443;28;20058;-72
2022/11/09 04:38:54;;;;;;;0.60;0.57;;;;;;;13.16;100.00;100339.34;6196566;28;20050;-72
2022/11/09 04:41:55;;;;;;;1.23;0.57;;;;;;;13.11;100.00;100344.13;6196398;28;20058;-72
2022/11/09 04:44:56;;;;;;;5.38;0.80;;;;;;;13.15;100.00;100345.59;6196331;28;20069;-73
2022/11/09 04:47:58;;;;;;;1.40;0.90;;;;;;;13.13;100.00;100349.31;6196725;28;20046;-72
2022/11/09 04:51:01;;;;;;;0.75;0.50;;;;;;;13.14;100.00;100353.63;6195963;28;20055;-72
2022/11/09 04:54:03;;;;;;;1.23;0.50;;;;;;;13.17;100.00;100367.44;6196472;28;20050;-71
2022/11/09 04:57:05;;;;;;;0.30;0.30;;;;;;;13.20;100.00;100367.22;6196350;28;20418;-72
2022/11/09 05:00:08;;;;;;;2.65;0.65;;;;;;;13.19;100.00;100365.53;6196132;28;20057;-71
2022/11/09 05:03:09;;;;;;;1.15;0.73;;;;;;;13.21;100.00;100357.50;6196246;28;20054;-72
2022/11/09 05:09:31;;;;;;;1.50;0.80;;;;;;;13.20;100.00;100350.53;6196400;28;20065;-71
2022/11/09 05:12:32;;;;;;;1.10;0.68;;;;;;;13.16;100.00;100355.19;6195646;28;20046;-71
2022/11/09 05:15:35;;;;;;;1.85;1.00;;;;;;;13.09;100.00;100351.31;6196037;28;20055;-72
2022/11/09 05:18:36;;;;;;;0.85;0.52;;;;;;;13.04;100.00;100353.44;6200321;28;20056;-72
2022/11/09 05:21:38;;;;;;;0.88;0.40;;;;;;;13.03;100.00;100343.81;6200321;28;20414;-72
2022/11/09 05:24:39;;;;;;;0.60;0.50;;;;;;;13.01;100.00;100350.16;6200242;28;20058;-72
2022/11/09 05:27:41;;;;;;;0.65;0.47;;;;;;;12.99;100.00;100358.19;6200729;28;20050;-71
2022/11/09 05:30:42;;;;;;;0.77;0.50;;;;;;;13.07;100.00;100353.19;6200200;28;20050;-72
2022/11/09 05:33:44;;;;;;;0.95;0.50;;;;;;;13.10;100.00;100354.78;6200313;28;20046;-72
2022/11/09 05:36:45;;;;;;;0.63;0.47;;;;;;;13.16;100.00;100363.09;6200960;28;20058;-72
2022/11/09 05:39:48;;;;;;;0.50;0.50;;;;;;;13.24;100.00;100369.69;6200347;28;20065;-73
2022/11/09 05:42:49;;;;;;;1.13;0.80;;;;;;;13.21;100.00;100366.25;6200451;28;20050;-71
2022/11/09 05:45:51;;;;;;;1.45;0.90;;;;;;;13.27;100.00;100380.03;6199973;28;20046;-71
2022/11/09 05:48:52;;;;;;;0.90;0.90;;;;;;;13.29;100.00;100365.75;6200101;28;20054;-72
2022/11/09 05:51:54;;;;;;;0.52;0.47;;;;;;;13.32;100.00;100376.09;6199602;28;20116;-71
2022/11/09 05:54:56;;;;;;;2.35;1.08;;;;;;;13.36;100.00;100361.75;6199688;28;20509;-72
2022/11/09 05:57:58;;;;;;;1.00;0.60;;;;;;;13.31;100.00;100366.50;6200028;28;20417;-72
2022/11/09 06:00:59;;;;;;;1.27;0.80;;;;;;;13.35;100.00;100356.56;6199577;28;20050;-72
2022/11/09 06:04:01;;;;;;;0.65;0.60;;;;;;;13.41;100.00;100361.41;6199503;28;20410;-71
2022/11/09 06:07:02;;;;;;;0.82;0.68;;;;;;;13.43;100.00;100362.13;6200009;28;20057;-72
2022/11/09 06:10:06;;;;;;;1.15;0.73;;;;;;;13.44;100.00;100371.72;6199656;28;20060;-72
2022/11/09 06:13:08;;;;;;;2.78;0.70;;;;;;;13.45;100.00;100371.66;6199709;28;20057;-71
2022/11/09 06:16:10;;;;;;;0.88;0.60;;;;;;;13.45;100.00;100366.38;6184645;28;20042;-71
2022/11/09 06:19:11;;;;;;;2.90;0.65;;;;;;;13.45;100.00;100374.28;6199474;28;20441;-72
2022/11/09 06:22:13;;;;;;;1.70;0.52;;;;;;;13.44;100.00;100384.94;6198984;28;20046;-72
2022/11/09 06:25:16;;;;;;;1.95;0.73;;;;;;;13.41;100.00;100372.81;6196891;28;20524;-72
2022/11/09 06:28:17;;;;;;;1.23;0.82;;;;;;;13.41;100.00;100387.81;6181282;28;20442;-72
2022/11/09 06:31:19;;;;;;;1.63;0.70;;;;;;;13.44;100.00;100379.66;6186299;28;20050;-71
2022/11/09 06:34:20;;;;;;;1.63;1.10;;;;;;;13.39;100.00;100389.69;6186482;28;20047;-71
2022/11/09 06:37:22;;;;;;;0.90;0.65;;;;;;;13.40;100.00;100396.69;6186601;28;20062;-73
2022/11/09 06:40:26;;;;;;;1.27;0.70;;;;;;;13.39;100.00;100394.97;6186821;28;20050;-72
2022/11/09 06:43:28;;;;;;;1.27;0.80;;;;;;;13.33;100.00;100390.97;6185510;28;20065;-72
2022/11/09 06:46:29;;;;;;;1.40;0.90;;;;;;;13.27;100.00;100394.06;6184711;28;20057;-72
2022/11/09 06:49:30;;;;;;;2.38;0.50;;;;;;;13.25;100.00;100392.47;6187280;28;20402;-72
2022/11/09 06:52:32;;;;;;;3.80;0.75;;;;;;;13.18;100.00;100406.06;6197142;28;20054;-71
2022/11/09 06:55:36;;;;;;;2.80;0.70;;;;;;;13.21;100.00;100407.63;6199454;28;20057;-72
2022/11/09 06:58:38;;;;;;;1.38;0.80;;;;;;;13.18;100.00;100414.00;6199710;28;20094;-72
2022/11/09 07:01:39;;;;;;;1.95;1.15;;;;;;;13.15;100.00;100416.81;6199316;28;20053;-72
2022/11/09 07:04:41;;;;;;;1.70;1.17;;;;;;;13.17;100.00;100424.63;6199222;28;20210;-73
2022/11/09 07:07:42;;;;;;;1.90;0.80;;;;;;;13.12;100.00;100427.59;6199539;28;20054;-72
2022/11/09 07:10:45;;;;;;;2.38;0.90;;;;;;;13.07;100.00;100432.34;6199010;28;20426;-71
2022/11/09 07:13:48;;;;;;;2.08;0.95;;;;;;;13.11;100.00;100432.97;6198985;28;20669;-72
2022/11/09 07:16:49;;;;;;;3.75;0.80;;;;;;;13.11;100.00;100438.25;6199354;28;20054;-73
2022/11/09 07:19:51;;;;;;;1.67;0.65;;;;;;;13.08;100.00;100435.81;6198782;28;20058;-72
2022/11/09 07:22:52;;;;;;;1.25;0.85;;;;;;;13.06;100.00;100438.56;6199005;28;20177;-72
2022/11/09 07:25:58;;;;;;;1.60;0.88;;;;;;;13.07;100.00;100432.34;6198904;28;20054;-72
2022/11/09 07:28:59;;;;;;;1.23;0.75;;;;;;;13.06;100.00;100435.09;6199109;28;20054;-71
2022/11/09 07:32:01;;;;;;;1.58;1.10;;;;;;;13.14;100.00;100438.06;6198391;28;20498;-72
2022/11/09 07:35:03;;;;;;;1.25;0.60;;;;;;;13.16;100.00;100441.41;6198561;28;20061;-73
2022/11/09 07:38:04;;;;;;;1.73;1.00;;;;;;;13.19;100.00;100439.41;6198826;28;20050;-73
2022/11/09 07:41:07;;;;;;;7.70;1.05;;;;;;;13.07;100.00;100456.09;6197737;28;20050;-72
2022/11/09 07:44:13;;;;;;;0.65;0.60;;;;;;;12.91;100.00;100450.19;6198857;28;20497;-72
2022/11/09 07:47:16;;;;;;;0.90;0.50;;;;;;;12.81;100.00;100447.31;6198849;28;20061;-73
2022/11/09 07:50:17;;;;;;;2.80;0.82;;;;;;;12.76;100.00;100448.56;6198086;28;20050;-72
2022/11/09 07:53:20;;;;;;;2.63;0.90;;;;;;;12.64;100.00;100444.97;6198575;28;20046;-73
2022/11/09 07:56:22;;;;;;;3.83;0.80;;;;;;;12.58;100.00;100443.59;6197992;28;20061;-72
2022/11/09 07:59:24;;;;;;;3.63;0.80;;;;;;;12.54;100.00;100457.06;6198570;28;20047;-72
2022/11/09 08:02:25;;;;;;;2.45;0.88;;;;;;;12.49;100.00;100462.66;6197823;28;20078;-72
2022/11/09 08:05:27;;;;;;;2.28;0.80;;;;;;;12.46;100.00;100469.91;6197914;28;20046;-72
2022/11/09 08:08:28;;;;;;;3.90;1.00;;;;;;;12.40;100.00;100461.47;6198309;28;20060;-71
2022/11/09 08:11:31;;;;;;;2.22;0.60;;;;;;;12.38;100.00;100462.50;6189751;28;20046;-72
2022/11/09 08:14:33;;;;;;;1.65;1.10;;;;;;;12.35;100.00;100471.47;6184479;28;20178;-71
2022/11/09 08:17:34;;;;;;;3.55;0.95;;;;;;;12.34;100.00;100475.00;6181924;28;20506;-71
2022/11/09 08:20:36;;;;;;;1.15;0.68;;;;;;;12.34;100.00;100479.44;6187088;28;20498;-72
2022/11/09 08:23:38;;;;;;;1.95;1.30;;;;;;;12.34;100.00;100474.16;6190408;28;20054;-72
2022/11/09 08:26:40;;;;;;;1.58;1.20;;;;;;;12.36;100.00;100480.22;6184846;28;20062;-71
2022/11/09 08:29:42;;;;;;;4.25;0.82;;;;;;;12.38;100.00;100483.56;6173480;28;20062;-71
2022/11/09 08:32:45;;;;;;;1.58;0.80;;;;;;;12.41;100.00;100486.88;6173692;28;20047;-70
2022/11/09 08:35:46;;;;;;;2.88;1.08;;;;;;;12.46;100.00;100497.09;6190654;28;20058;-71
2022/11/09 08:38:47;;;;;;;1.58;0.77;;;;;;;12.53;100.00;100495.75;6198114;28;20050;-70
2022/11/09 08:41:50;;;;;;;1.45;0.80;;;;;;;12.63;100.00;100498.66;6197281;28;20057;-71
2022/11/09 08:44:52;;;;;;;2.17;0.93;;;;;;;12.73;100.00;100509.44;6197402;28;20057;-71
2022/11/09 08:47:57;;;;;;;2.33;1.27;;;;;;;12.80;100.00;100508.06;6197569;28;20061;-70
2022/11/09 08:51:00;;;;;;;6.72;3.30;;;;;;;12.87;100.00;100504.06;6194478;28;20058;-72
2022/11/09 08:54:01;;;;;;;1.60;1.13;;;;;;;12.89;100.00;100499.53;6178016;28;20094;-71
2022/11/09 08:57:05;;;;;;;1.20;0.70;;;;;;;12.94;100.00;100500.06;6178467;28;20061;-71
2022/11/09 09:00:07;;;;;;;1.55;0.80;;;;;;;12.98;100.00;100506.81;6177768;28;20426;-71
2022/11/09 09:03:09;;;;;;;3.65;0.80;;;;;;;12.98;100.00;100500.72;6178140;28;20065;-71
2022/11/09 09:06:10;;;;;;;4.30;0.70;;;;;;;12.96;100.00;100511.38;6178147;28;20050;-70
2022/11/09 09:09:12;;;;;;;5.35;1.10;;;;;;;13.00;100.00;100504.09;6177955;28;20062;-70
2022/11/09 09:12:15;;;;;;;0.95;0.80;;;;;;;13.01;100.00;100514.53;6177768;28;20047;-71
2022/11/09 09:15:17;;;;;;;1.92;0.90;;;;;;;13.04;100.00;100513.50;6177570;28;20061;-70
2022/11/09 09:18:18;;;;;;;8.07;2.25;;;;;;;13.06;100.00;100514.22;6177775;28;20414;-70
2022/11/09 09:21:20;;;;;;;6.38;1.50;;;;;;;13.12;100.00;100517.28;6177349;28;20054;-70
2022/11/09 09:24:21;;;;;;;2.10;0.88;;;;;;;13.18;100.00;100519.53;6180116;28;20046;-74
2022/11/09 09:27:24;;;;;;;1.65;0.70;;;;;;;13.26;100.00;100518.19;6201801;28;20479;-70
2022/11/09 09:30:27;;;;;;;1.23;0.70;;;;;;;13.30;100.00;100515.22;6201000;28;20053;-71
2022/11/09 09:33:28;;;;;;;2.70;1.58;;;;;;;13.34;100.00;100519.34;6201532;28;20418;-70
2022/11/09 09:36:30;;;;;;;5.18;1.08;;;;;;;13.43;100.00;100523.16;6201299;28;20054;-71
2022/11/09 09:39:31;;;;;;;1.45;0.63;;;;;;;13.50;100.00;100528.88;6192834;28;20050;-70
2022/11/09 09:42:36;;;;;;;2.25;0.95;;;;;;;13.62;100.00;100528.00;6179241;28;20048;-70
2022/11/09 09:45:48;;;;;;;2.70;0.60;;;;;;;13.73;100.00;100528.13;6178940;28;20047;-72
2022/11/09 09:48:53;;;;;;;1.25;0.80;;;;;;;13.78;100.00;100530.44;6177052;28;20051;-70
2022/11/09 09:51:58;;;;;;;1.73;0.70;;;;;;;13.90;100.00;100538.34;6176940;28;20054;-71
2022/11/09 09:55:07;;;;;;;2.38;0.70;;;;;;;14.05;100.00;100530.28;6176474;28;20047;-70
2022/11/09 09:58:13;;;;;;;1.37;0.70;;;;;;;14.10;100.00;100528.16;6177392;28;20051;-73
2022/11/09 10:01:18;;;;;;;1.45;0.45;;;;;;;14.16;100.00;100530.34;6176152;28;20046;-73
2022/11/09 10:04:24;;;;;;;5.68;0.80;;;;;;;14.22;100.00;100524.63;6176272;28;20061;-70
2022/11/09 10:07:30;;;;;;;3.90;0.90;;;;;;;14.32;100.00;100532.75;6177083;28;20050;-73
2022/11/09 10:10:43;;;;;;;2.90;0.82;;;;;;;14.37;100.00;100543.81;6191576;28;20054;-73
2022/11/09 10:14:11;;;;;;;7.38;0.90;;;;;;;14.39;100.00;100531.31;6200309;28;20494;-71
2022/11/09 10:17:23;;;;;;;1.98;0.80;;;;;;;14.41;100.00;100524.16;6200115;28;20046;-72
2022/11/09 10:20:35;;;;;;;0.70;0.50;;;;;;;14.54;100.00;100530.25;6200400;28;20062;-73
2022/11/09 10:23:49;;;;;;;2.25;0.70;;;;;;;14.73;100.00;100532.38;6200619;28;20058;-75
2022/11/09 10:26:52;;;;;;;5.13;0.80;;;;;;;14.83;100.00;100524.59;6200522;28;20056;-75
2022/11/09 10:29:56;;;;;;;1.45;0.90;;;;;;;14.80;98.66;100532.75;6200004;28;20051;-73
2022/11/09 10:33:12;;;;;;;1.77;0.80;;;;;;;14.75;97.54;100535.75;6200165;28;20072;-74
2022/11/09 10:36:23;;;;;;;5.38;1.02;;;;;;;14.77;96.17;100549.72;6200125;28;20085;-73
2022/11/09 10:39:27;;;;;;;4.00;1.25;;;;;;;14.83;95.67;100532.53;6200272;28;20050;-74
2022/11/09 10:42:28;;;;;;;2.40;0.82;;;;;;;14.88;94.37;100535.69;6200004;28;20050;-72
2022/11/09 10:45:33;;;;;;;3.35;1.25;;;;;;;14.93;93.77;100531.72;6199602;28;20073;-74
2022/11/09 10:48:37;;;;;;;2.05;1.30;;;;;;;14.92;91.75;100535.34;6200180;28;20051;-73
2022/11/09 10:51:40;;;;;;;0.93;0.80;;;;;;;14.94;90.64;100535.22;6199227;28;20050;-72
2022/11/09 10:54:42;;;;;;;0.77;0.70;;;;;;;14.88;92.31;100535.69;6199846;28;20060;-72
2022/11/09 10:57:52;;;;;;;0.90;0.82;;;;;;;14.67;92.47;100536.34;6199472;28;20057;-72
2022/11/09 11:01:01;;;;;;;6.43;1.05;;;;;;;14.83;91.01;100528.09;6199352;28;20425;-73
2022/11/09 11:04:13;;;;;;;;;;;;;;;15.05;90.25;100527.31;6175542;28;20047;-73
2022/11/09 11:07:18;;;;;;;3.17;0.88;;;;;;;15.13;87.31;100522.31;6175400;28;20329;-73
2022/11/09 11:10:21;;;;;;;4.13;1.10;;;;;;;15.23;87.33;100519.78;6175105;28;20050;-73
2022/11/09 11:13:24;;;;;;;6.07;1.13;;;;;;;14.93;87.90;100526.44;6175017;28;20051;-72
2022/11/09 11:16:32;;;;;;;1.55;0.98;;;;;;;14.84;91.23;100527.13;6174333;28;20073;-70
2022/11/09 11:19:35;;;;;;;4.53;0.90;;;;;;;14.90;90.49;100531.97;6190729;28;20137;-73
2022/11/09 11:22:37;;;;;;;1.85;0.98;;;;;;;15.04;90.36;100516.88;6184045;28;20785;-72
2022/11/09 11:25:55;;;;;;;2.78;1.33;;;;;;;15.14;88.89;100523.97;6185440;28;20051;-73
2022/11/09 11:29:00;;;;;;;5.88;1.15;;;;;;;15.24;87.27;100524.13;6184508;28;20050;-73
2022/11/09 11:32:03;;;;;;;3.83;0.73;;;;;;;15.43;89.32;100526.19;6185237;28;20055;-73
2022/11/09 11:35:12;;;;;;;3.70;0.93;;;;;;;15.82;85.87;100521.44;6188053;28;20043;-72
2022/11/09 11:38:22;;;;;;;1.27;1.17;;;;;;;15.77;83.00;100537.72;6199104;28;20047;-74
2022/11/09 11:41:41;;;;;;;1.80;0.60;;;;;;;15.57;81.87;100541.03;6198314;28;20061;-73
2022/11/09 11:44:59;;;;;;;2.33;0.98;;;;;;;15.58;83.11;100529.44;6198578;28;20046;-73
2022/11/09 11:48:20;;;;;;;6.32;1.58;;;;;;;15.52;82.75;100524.66;6198745;28;20054;-74
2022/11/09 11:51:29;;;;;;;7.22;1.17;;;;;;;15.52;81.00;100536.06;6198239;28;20537;-72
2022/11/09 11:54:41;;;;;;;6.22;0.88;;;;;;;15.47;82.32;100532.94;6197879;28;20046;-73
2022/11/09 11:57:53;;;;;;;1.55;1.02;;;;;;;15.38;83.82;100536.31;6198541;28;20445;-72
2022/11/09 12:01:03;;;;;;;2.22;0.90;;;;;;;15.39;83.96;100540.63;6198157;28;20057;-74
2022/11/09 12:04:20;;;;;;;2.97;0.80;;;;;;;15.57;82.29;100525.97;6173909;28;20094;-74
2022/11/09 12:07:36;;;;;;;1.83;0.73;;;;;;;15.52;83.94;100530.78;6174366;28;20047;-73
2022/11/09 12:10:49;;;;;;;5.80;0.73;;;;;;;15.38;84.70;100523.91;6173727;28;20054;-70
2022/11/09 12:14:04;;;;;;;0.63;0.60;;;;;;;15.27;86.12;100526.53;6173672;28;20412;-71
2022/11/09 12:17:14;;;;;;;5.72;0.80;;;;;;;15.32;83.99;100529.69;6175846;28;20418;-71
2022/11/09 12:20:22;;;;;;;;;;;;;;;15.49;82.76;100523.09;6200645;28;20400;-71
2022/11/09 12:23:37;;;;;;;2.10;0.70;;;;;;;15.64;81.34;100534.31;6200207;28;19922;-70
2022/11/09 12:26:58;;;;;;;2.30;0.93;;;;;;;15.72;78.97;100527.47;6199099;28;20053;-71
2022/11/09 12:30:06;;;;;;;0.77;0.50;;;;;;;15.87;77.99;100527.22;6197728;28;20050;-71
2022/11/09 12:33:12;;;;;;;0.68;0.50;;;;;;;15.84;77.41;100525.66;6197804;28;20050;-71
2022/11/09 12:36:19;;;;;;;1.35;0.40;;;;;;;15.76;76.89;100521.91;6197519;28;20055;-70
2022/11/09 12:39:26;;;;;;;3.28;0.52;;;;;;;15.79;78.12;100527.81;6197707;28;20050;-71
2022/11/09 12:42:35;;;;;;;1.42;0.50;;;;;;;15.83;77.65;100525.78;6197385;28;20057;-72
2022/11/09 12:45:39;;;;;;;3.80;0.90;;;;;;;15.94;79.82;100526.63;6197287;28;20417;-71
2022/11/09 12:48:41;;;;;;;4.93;0.75;;;;;;;15.90;78.52;100525.19;6197680;28;20076;-72
2022/11/09 12:51:44;;;;;;;2.70;0.50;;;;;;;16.04;78.95;100521.44;6197678;28;20498;-70
2022/11/09 12:54:48;;;;;;;1.20;0.50;;;;;;;16.16;77.76;100515.13;6197144;28;20051;-72
2022/11/09 12:57:50;;;;;;;1.92;0.50;;;;;;;16.15;77.70;100515.25;6197890;28;20054;-71
2022/11/09 13:00:55;;;;;;;1.58;0.50;;;;;;;16.18;76.55;100518.50;6197107;28;20054;-67
2022/11/09 13:03:58;;;;;;;3.83;0.65;;;;;;;16.02;77.46;100519.84;6197313;28;20047;-71
2022/11/09 13:07:26;;;;;;;0.40;0.40;;;;;;;15.92;76.88;100502.03;6197306;28;20057;-72
2022/11/09 13:10:31;;;;;;;1.77;0.40;;;;;;;15.90;76.85;100509.28;6197217;28;20498;-72
2022/11/09 13:13:33;;;;;;;4.45;0.60;;;;;;;15.99;75.17;100510.34;6197465;28;20046;-71
2022/11/09 13:16:35;;;;;;;2.67;0.63;;;;;;;15.87;75.09;100508.69;6197184;28;20125;-72
2022/11/09 13:19:54;;;;;;;4.32;0.45;;;;;;;15.66;75.08;100503.25;6196959;28;20074;-71
2022/11/09 13:23:01;;;;;;;1.13;0.40;;;;;;;15.66;74.63;100509.38;6197460;28;20056;-67
2022/11/09 13:26:04;;;;;;;2.88;0.55;;;;;;;15.61;73.55;100527.41;6196687;28;20773;-71
2022/11/09 13:29:21;;;;;;;2.10;0.75;;;;;;;15.56;72.94;100513.69;6197471;28;20050;-70
2022/11/09 13:32:25;;;;;;;0.55;0.40;;;;;;;15.45;72.65;100524.28;6196583;28;20057;-71
2022/11/09 13:35:59;;;;;;;2.97;0.43;;;;;;;15.37;72.35;100532.81;6196638;28;20054;-71
2022/11/09 13:39:37;;;;;;;1.90;0.50;;;;;;;15.33;71.48;100531.34;6188995;28;20495;-71
2022/11/09 13:42:57;;;;;;;1.40;0.63;;;;;;;15.37;71.73;100524.88;6176965;28;20136;-71
2022/11/09 13:46:01;;;;;;;3.40;0.30;;;;;;;15.33;72.86;100535.81;6177261;28;20053;-71
2022/11/09 13:49:02;;;;;;;0.82;0.73;;;;;;;15.33;71.27;100531.34;6187407;28;20430;-71
2022/11/09 13:52:04;;;;;;;1.45;0.50;;;;;;;15.32;71.16;100547.38;6201145;28;20522;-70
2022/11/09 13:55:17;;;;;;;1.85;0.52;;;;;;;15.33;70.47;100549.91;6200587;28;20046;-72
2022/11/09 13:58:36;;;;;;;1.83;0.55;;;;;;;15.34;70.86;100542.78;6201346;28;20054;-71
2022/11/09 14:01:46;;;;;;;2.00;0.70;;;;;;;15.39;70.90;100549.41;6199513;28;20077;-72
2022/11/09 14:04:48;;;;;;;4.72;0.50;;;;;;;15.42;70.97;100556.28;6199873;28;20050;-71
2022/11/09 14:07:49;;;;;;;5.47;1.35;;;;;;;15.35;71.26;100550.63;6200973;28;20054;-71
2022/11/09 14:11:30;;;;;;;1.98;0.70;;;;;;;15.31;71.24;100554.47;6200634;28;20058;-71
2022/11/09 14:15:02;;;;;;;0.40;0.30;;;;;;;15.26;73.12;100572.53;6199093;28;20053;-72